createdAt,value
2017-11-04T00:01:33.876Z,95071.20
2017-11-04T00:04:01.026Z,95073.30
2017-11-04T00:06:28.236Z,95067.83
2017-11-04T00:08:55.433Z,95068.97
2017-11-04T00:11:22.635Z,95060.44
2017-11-04T00:13:49.808Z,95067.65
2017-11-04T00:16:16.986Z,95066.50
2017-11-04T00:18:44.752Z,95062.91
2017-11-04T00:21:11.918Z,95060.83
2017-11-04T00:23:39.068Z,95061.42
2017-11-04T00:26:06.288Z,95061.59
2017-11-04T00:28:33.472Z,95068.03
2017-11-04T00:31:00.664Z,95060.86
2017-11-04T00:33:27.865Z,95060.48
2017-11-04T00:35:55.400Z,95059.92
2017-11-04T00:38:22.541Z,95066.92
2017-11-04T00:40:49.781Z,95060.87
2017-11-04T00:43:18.468Z,95061.43
2017-11-04T00:45:45.686Z,95068.81
2017-11-04T00:48:12.871Z,95068.25
2017-11-04T00:50:54.229Z,95066.92
2017-11-04T00:53:29.175Z,95062.41
2017-11-04T00:55:56.419Z,95062.78
2017-11-04T00:58:23.672Z,95065.26
2017-11-04T01:00:50.968Z,95070.91
2017-11-04T01:03:18.139Z,95072.23
2017-11-04T01:05:46.018Z,95077.72
2017-11-04T01:08:14.482Z,95075.84
2017-11-04T01:10:41.667Z,95073.20
2017-11-04T01:13:08.861Z,95077.73
2017-11-04T01:15:36.103Z,95077.73
2017-11-04T01:18:15.909Z,95076.41
2017-11-04T01:20:43.106Z,95079.05
2017-11-04T01:23:10.310Z,95077.00
2017-11-04T01:25:50.616Z,95080.58
2017-11-04T01:28:17.820Z,95072.64
2017-11-04T01:30:45.028Z,95070.94
2017-11-04T01:33:26.691Z,95072.64
2017-11-04T01:35:53.863Z,95076.23
2017-11-04T01:38:21.058Z,95077.17
2017-11-04T01:40:48.311Z,95074.35
2017-11-04T01:43:15.568Z,95081.34
2017-11-04T01:45:42.973Z,95085.70
2017-11-04T01:48:10.214Z,95091.16
2017-11-04T01:50:37.458Z,95091.17
2017-11-04T01:56:01.000Z,95100.43
2017-11-04T01:58:28.147Z,95107.08
2017-11-04T02:00:55.298Z,95102.16
2017-11-04T02:03:22.579Z,95106.13
2017-11-04T02:05:49.808Z,95111.60
2017-11-04T02:08:16.983Z,95104.60
2017-11-04T02:10:44.239Z,95107.63
2017-11-04T02:13:11.592Z,95104.42
2017-11-04T02:15:38.768Z,95108.57
2017-11-04T02:18:06.080Z,95108.60
2017-11-04T02:20:33.342Z,95120.30
2017-11-04T02:23:00.617Z,95120.86
2017-11-04T02:25:27.860Z,95118.03
2017-11-04T02:27:55.103Z,95115.01
2017-11-04T02:30:29.602Z,95117.27
2017-11-04T02:32:56.810Z,95116.72
2017-11-04T02:35:31.150Z,95111.80
2017-11-04T02:37:58.381Z,95109.75
2017-11-04T02:40:25.552Z,95114.66
2017-11-04T02:42:52.704Z,95108.42
2017-11-04T02:45:19.927Z,95117.30
2017-11-04T02:47:47.135Z,95120.71
2017-11-04T02:50:14.371Z,95120.71
2017-11-04T02:52:41.581Z,95123.15
2017-11-04T02:55:08.782Z,95122.80
2017-11-04T02:57:36.001Z,95129.59
2017-11-04T03:02:52.957Z,95129.20
2017-11-04T03:05:20.105Z,95132.61
2017-11-04T03:07:47.430Z,95129.20
2017-11-04T03:10:14.814Z,95136.41
2017-11-04T03:12:43.008Z,95138.84
2017-11-04T03:15:10.184Z,95135.81
2017-11-04T03:26:24.940Z,95139.05
2017-11-04T03:28:52.172Z,95141.51
2017-11-04T03:31:19.414Z,95137.16
2017-11-04T03:33:46.653Z,95142.83
2017-11-04T03:36:13.911Z,95144.89
2017-11-04T03:38:41.144Z,95147.18
2017-11-04T03:41:08.402Z,95144.91
2017-11-04T03:46:08.907Z,95152.09
2017-11-04T03:48:36.149Z,95150.38
2017-11-04T03:51:03.442Z,95148.50
2017-11-04T03:53:30.762Z,95143.77
2017-11-04T03:58:50.752Z,95141.88
2017-11-04T04:01:17.975Z,95149.64
2017-11-04T04:03:45.231Z,95151.52
2017-11-04T04:06:12.408Z,95156.64
2017-11-04T04:08:39.728Z,95154.16
2017-11-04T04:11:07.003Z,95153.78
2017-11-04T04:13:34.296Z,95158.13
2017-11-04T04:16:01.533Z,95158.89
2017-11-04T04:18:41.719Z,95165.69
2017-11-04T04:21:08.932Z,95160.04
2017-11-04T04:23:57.620Z,95165.89
2017-11-04T04:26:24.833Z,95169.86
2017-11-04T04:28:52.072Z,95172.12
2017-11-04T04:31:19.350Z,95171.35
2017-11-04T04:33:46.625Z,95170.99
2017-11-04T04:36:13.976Z,95173.81
2017-11-04T05:32:30.066Z,95231.41
2017-11-04T05:34:57.338Z,95235.77
2017-11-04T05:37:25.144Z,95233.86
2017-11-04T05:39:52.385Z,95241.23
2017-11-04T05:42:19.634Z,95243.70
2017-11-04T05:44:46.837Z,95250.86
2017-11-04T05:47:14.149Z,95257.86
2017-11-04T05:49:41.364Z,95264.09
2017-11-04T05:52:08.527Z,95268.05
2017-11-04T05:54:35.740Z,95268.99
2017-11-04T05:57:02.946Z,95271.63
2017-11-04T05:59:30.115Z,95277.30
2017-11-04T06:01:57.819Z,95284.30
2017-11-04T06:04:25.089Z,95289.03
2017-11-04T06:06:52.258Z,95285.62
2017-11-04T06:09:19.418Z,95295.98
2017-11-04T06:11:46.667Z,95299.59
2017-11-04T06:14:13.876Z,95297.69
2017-11-04T06:16:41.087Z,95296.75
2017-11-04T06:19:08.358Z,95305.45
2017-11-04T06:21:35.545Z,95305.45
2017-11-04T06:24:02.914Z,95309.23
2017-11-04T06:26:30.185Z,95305.27
2017-11-04T06:28:57.360Z,95305.44
2017-11-04T06:31:24.624Z,95307.70
2017-11-04T06:33:51.869Z,95316.78
2017-11-04T06:36:19.029Z,95308.28
2017-11-04T06:38:46.277Z,95310.55
2017-11-04T06:41:13.482Z,95310.73
2017-11-04T06:43:40.646Z,95315.08
2017-11-04T06:46:07.914Z,95314.52
2017-11-04T06:48:35.155Z,95316.58
2017-11-04T06:51:02.380Z,95317.17
2017-11-04T06:53:29.582Z,95317.72
2017-11-04T06:55:56.732Z,95316.95
2017-11-04T06:58:23.928Z,95317.52
2017-11-04T07:00:51.162Z,95321.13
2017-11-04T07:03:18.368Z,95320.56
2017-11-04T07:05:45.610Z,95320.73
2017-11-04T07:08:12.768Z,95329.99
2017-11-04T07:10:39.985Z,95327.73
2017-11-04T07:13:07.165Z,95330.03
2017-11-04T07:15:34.380Z,95326.45
2017-11-04T07:18:01.568Z,95332.48
2017-11-04T07:20:28.815Z,95335.72
2017-11-04T07:22:56.002Z,95331.17
2017-11-04T07:25:23.186Z,95341.20
2017-11-04T07:27:50.434Z,95338.35
2017-11-04T07:30:17.633Z,95341.77
2017-11-04T07:32:44.782Z,95341.95
2017-11-04T07:35:11.994Z,95346.48
2017-11-04T07:37:39.249Z,95348.58
2017-11-04T07:40:07.222Z,95351.78
2017-11-04T07:42:34.411Z,95348.59
2017-11-04T07:45:01.595Z,95353.50
2017-11-04T07:47:28.789Z,95348.00
2017-11-04T07:49:56.039Z,95348.21
2017-11-04T07:52:23.298Z,95355.39
2017-11-04T07:54:50.480Z,95354.80
2017-11-04T07:57:17.684Z,95356.89
2017-11-04T07:59:44.987Z,95361.24
2017-11-04T08:02:12.178Z,95364.83
2017-11-04T08:04:39.488Z,95363.12
2017-11-04T08:07:06.660Z,95369.57
2017-11-04T08:09:33.867Z,95372.02
2017-11-04T08:12:01.157Z,95366.55
2017-11-04T08:14:28.391Z,95375.42
2017-11-04T08:16:55.641Z,95380.73
2017-11-04T08:19:22.830Z,95381.09
2017-11-04T08:21:49.971Z,95379.59
2017-11-04T08:24:17.259Z,95385.06
2017-11-04T08:26:44.444Z,95386.21
2017-11-04T08:29:11.712Z,95386.77
2017-11-04T08:31:38.916Z,95384.89
2017-11-04T08:34:06.128Z,95389.98
2017-11-04T08:36:33.367Z,95395.27
2017-11-04T08:39:00.600Z,95397.72
2017-11-04T08:41:27.848Z,95398.66
2017-11-04T08:43:55.014Z,95394.91
2017-11-04T08:46:22.185Z,95395.66
2017-11-04T08:48:49.625Z,95402.86
2017-11-04T08:51:16.939Z,95391.16
2017-11-04T08:53:44.142Z,95396.06
2017-11-04T08:56:11.397Z,95390.20
2017-11-04T08:58:38.644Z,95397.78
2017-11-04T09:01:05.924Z,95394.19
2017-11-04T09:03:33.150Z,95395.88
2017-11-04T09:06:00.367Z,95395.11
2017-11-04T09:08:27.531Z,95392.13
2017-11-04T09:10:54.788Z,95387.20
2017-11-04T09:13:21.995Z,95396.47
2017-11-04T09:15:49.172Z,95386.62
2017-11-04T09:18:16.524Z,95388.69
2017-11-04T09:20:44.201Z,95385.88
2017-11-04T09:23:11.392Z,95380.55
2017-11-04T09:25:38.582Z,95376.20
2017-11-04T09:28:05.893Z,95375.44
2017-11-04T09:30:33.309Z,95376.19
2017-11-04T09:33:00.495Z,95369.56
2017-11-04T09:35:27.707Z,95369.36
2017-11-04T09:37:54.896Z,95364.83
2017-11-04T09:40:22.095Z,95361.59
2017-11-04T09:42:49.314Z,95358.17
2017-11-04T09:45:16.558Z,95352.14
2017-11-04T09:47:43.748Z,95354.77
2017-11-04T09:50:10.954Z,95352.49
2017-11-04T09:52:38.127Z,95350.78
2017-11-04T09:55:05.498Z,95350.78
2017-11-04T09:57:32.985Z,95347.16
2017-11-04T10:58:45.590Z,95307.08
2017-11-04T11:39:39.403Z,95300.89
2017-11-04T11:42:06.649Z,95305.61
2017-11-04T11:44:33.862Z,95304.84
2017-11-04T11:47:01.063Z,95294.81
2017-11-04T11:49:28.492Z,95302.94
2017-11-04T11:51:55.658Z,95294.98
2017-11-04T11:54:22.863Z,95295.92
2017-11-04T11:56:50.074Z,95293.27
2017-11-04T11:59:17.528Z,95292.70
2017-11-04T12:01:44.688Z,95293.65
2017-11-04T12:04:11.931Z,95288.52
2017-11-04T12:06:39.092Z,95294.77
2017-11-04T12:09:06.328Z,95296.09
2017-11-04T12:11:33.567Z,95296.30
2017-11-04T12:14:00.886Z,95301.61
2017-11-04T12:16:28.126Z,95293.27
2017-11-04T12:18:55.300Z,95295.53
2017-11-04T12:21:22.501Z,95298.19
2017-11-04T12:23:49.719Z,95295.14
2017-11-04T12:26:16.961Z,95293.05
2017-11-04T12:28:44.175Z,95296.86
2017-11-04T12:31:11.341Z,95297.97
2017-11-04T12:33:38.506Z,95300.63
2017-11-04T12:36:05.723Z,95301.77
2017-11-04T12:41:06.210Z,95298.34
2017-11-04T12:43:33.423Z,95297.58
2017-11-04T12:46:00.656Z,95303.27
2017-11-04T12:48:27.937Z,95306.30
2017-11-04T12:50:55.101Z,95317.09
2017-11-04T12:53:22.352Z,95310.25
2017-11-04T12:55:49.561Z,95310.83
2017-11-04T12:58:16.807Z,95308.91
2017-11-04T13:00:44.039Z,95309.84
2017-11-04T13:03:11.244Z,95306.81
2017-11-04T13:05:38.573Z,95316.70
2017-11-04T13:08:05.810Z,95313.83
2017-11-04T13:10:33.111Z,95315.16
2017-11-04T13:13:00.353Z,95311.94
2017-11-04T13:15:27.521Z,95313.64
2017-11-04T13:17:54.715Z,95315.33
2017-11-04T13:20:21.943Z,95312.67
2017-11-04T13:22:49.181Z,95311.73
2017-11-04T13:25:16.441Z,95317.42
2017-11-04T13:27:43.733Z,95317.03
2017-11-04T13:30:10.905Z,95313.05
2017-11-04T13:32:38.099Z,95311.73
2017-11-04T13:35:05.319Z,95311.94
2017-11-04T13:37:32.472Z,95308.52
2017-11-04T13:40:00.031Z,95302.84
2017-11-04T13:42:27.253Z,95305.70
2017-11-04T13:44:54.465Z,95302.50
2017-11-04T13:47:21.732Z,95306.30
2017-11-04T13:49:48.915Z,95304.22
2017-11-04T13:52:16.260Z,95303.66
2017-11-04T13:54:43.558Z,95304.81
2017-11-04T13:57:10.742Z,95303.50
2017-11-04T13:59:38.027Z,95310.90
2017-11-04T14:02:05.392Z,95310.34
2017-11-04T14:04:32.624Z,95309.97
2017-11-04T14:07:00.000Z,95307.88
2017-11-04T14:09:27.239Z,95303.90
2017-11-04T14:11:54.505Z,95311.30
2017-11-04T14:14:21.777Z,95309.98
2017-11-04T14:16:48.995Z,95309.81
2017-11-04T14:19:16.383Z,95312.28
2017-11-04T14:21:43.553Z,95311.34
2017-11-04T14:24:10.772Z,95315.33
2017-11-04T14:26:38.015Z,95315.16
2017-11-04T14:29:05.223Z,95311.95
2017-11-04T14:31:32.553Z,95319.32
2017-11-04T14:33:59.792Z,95318.38
2017-11-04T14:36:26.989Z,95316.88
2017-11-04T14:38:54.278Z,95318.59
2017-11-04T14:41:21.445Z,95321.80
2017-11-04T14:43:48.639Z,95318.80
2017-11-04T14:46:15.820Z,95323.55
2017-11-04T14:48:43.072Z,95326.77
2017-11-04T14:51:10.288Z,95331.13
2017-11-04T14:53:37.495Z,95329.03
2017-11-04T14:56:04.699Z,95332.45
2017-11-04T14:58:32.011Z,95333.23
2017-11-04T15:00:59.241Z,95329.63
2017-11-04T15:03:26.406Z,95337.03
2017-11-04T15:05:53.630Z,95331.17
2017-11-04T15:08:20.874Z,95328.52
2017-11-04T15:10:48.020Z,95328.34
2017-11-04T15:13:15.243Z,95327.41
2017-11-04T15:15:42.479Z,95329.67
2017-11-04T15:18:09.760Z,95325.70
2017-11-04T15:20:36.923Z,95326.08
2017-11-04T15:23:04.143Z,95326.27
2017-11-04T15:25:31.378Z,95328.73
2017-11-04T15:27:58.627Z,95337.45
2017-11-04T15:30:25.839Z,95339.91
2017-11-04T15:32:53.104Z,95343.30
2017-11-04T15:35:20.315Z,95345.77
2017-11-04T15:37:47.494Z,95348.80
2017-11-04T15:40:14.779Z,95357.14
2017-11-04T15:42:42.183Z,95354.49
2017-11-04T15:45:09.462Z,95357.14
2017-11-04T15:47:36.680Z,95363.42
2017-11-04T15:50:03.882Z,95375.52
2017-11-04T15:52:31.121Z,95374.41
2017-11-04T15:54:58.299Z,95382.74
2017-11-04T15:57:25.560Z,95380.86
2017-11-04T15:59:52.876Z,95385.39
2017-11-04T16:02:21.611Z,95385.77
2017-11-04T16:04:48.893Z,95386.33
2017-11-04T16:07:16.152Z,95390.69
2017-11-04T16:09:43.407Z,95394.11
2017-11-04T16:12:10.611Z,95396.02
2017-11-04T16:14:37.823Z,95403.38
2017-11-04T16:17:05.087Z,95400.56
2017-11-04T16:19:32.285Z,95401.88
2017-11-04T16:21:59.538Z,95405.86
2017-11-04T16:24:26.737Z,95409.48
2017-11-04T16:26:53.967Z,95414.19
2017-11-04T16:29:21.193Z,95413.45
2017-11-04T16:31:48.467Z,95430.29
2017-11-04T16:34:15.768Z,95426.31
2017-11-04T16:36:43.007Z,95427.28
2017-11-04T16:39:10.477Z,95423.31
2017-11-04T16:41:37.928Z,95428.02
2017-11-04T16:44:05.176Z,95434.84
2017-11-04T16:46:32.350Z,95432.38
2017-11-04T16:48:59.586Z,95433.73
2017-11-04T16:51:26.826Z,95436.37
2017-11-04T16:53:54.040Z,95439.41
2017-11-04T16:56:21.309Z,95440.73
2017-11-04T16:58:48.525Z,95444.70
2017-11-04T17:01:15.805Z,95444.70
2017-11-04T17:03:42.988Z,95445.25
2017-11-04T17:06:10.168Z,95444.13
2017-11-04T17:08:37.419Z,95441.48
2017-11-04T17:11:04.658Z,95446.98
2017-11-04T17:13:31.882Z,95443.02
2017-11-04T17:15:59.182Z,95439.77
2017-11-04T17:18:26.359Z,95444.33
2017-11-04T17:20:53.605Z,95450.01
2017-11-04T17:23:20.862Z,95445.47
2017-11-04T17:25:48.123Z,95447.36
2017-11-04T17:28:15.339Z,95447.91
2017-11-04T17:30:42.565Z,95450.38
2017-11-04T17:33:09.810Z,95448.50
2017-11-04T17:35:37.022Z,95446.96
2017-11-04T17:38:04.240Z,95452.47
2017-11-04T17:40:31.486Z,95457.20
2017-11-04T17:42:58.666Z,95452.08
2017-11-04T17:45:25.882Z,95459.28
2017-11-04T17:47:53.223Z,95462.49
2017-11-04T17:50:20.397Z,95458.90
2017-11-04T17:52:47.595Z,95459.28
2017-11-04T17:55:14.820Z,95463.42
2017-11-04T17:57:42.004Z,95464.95
2017-11-04T18:00:09.240Z,95463.25
2017-11-04T18:02:36.427Z,95463.63
2017-11-04T18:05:03.709Z,95467.80
2017-11-04T18:07:30.891Z,95477.80
2017-11-04T18:09:58.082Z,95474.98
2017-11-04T18:12:25.298Z,95474.98
2017-11-04T18:14:53.718Z,95477.83
2017-11-04T18:17:20.999Z,95488.04
2017-11-04T18:19:48.245Z,95488.80
2017-11-04T18:22:15.479Z,95488.97
2017-11-04T18:24:42.659Z,95488.03
2017-11-04T18:27:09.920Z,95496.91
2017-11-04T18:29:37.101Z,95493.31
2017-11-04T18:32:04.416Z,95502.23
2017-11-04T18:34:31.641Z,95501.08
2017-11-04T18:36:58.854Z,95507.31
2017-11-04T18:39:26.064Z,95507.52
2017-11-04T18:41:53.256Z,95509.61
2017-11-04T18:44:20.468Z,95506.58
2017-11-04T18:46:47.642Z,95509.22
2017-11-04T18:49:14.836Z,95517.16
2017-11-04T18:51:42.079Z,95513.36
2017-11-04T18:54:09.291Z,95511.47
2017-11-04T18:56:36.524Z,95509.16
2017-11-04T18:59:03.772Z,95516.38
2017-11-04T19:01:30.967Z,95513.91
2017-11-04T19:03:58.165Z,95514.66
2017-11-04T19:06:26.672Z,95518.64
2017-11-04T19:08:53.952Z,95514.84
2017-11-04T19:11:21.164Z,95512.95
2017-11-04T19:13:48.397Z,95515.41
2017-11-04T19:16:15.661Z,95513.70
2017-11-04T19:18:42.879Z,95512.94
2017-11-04T19:21:10.056Z,95513.91
2017-11-04T19:23:37.281Z,95516.34
2017-11-04T19:26:04.472Z,95513.52
2017-11-04T19:28:31.654Z,95512.19
2017-11-04T19:30:58.874Z,95518.43
2017-11-04T19:33:26.069Z,95515.59
2017-11-04T19:35:53.270Z,95514.66
2017-11-04T19:38:20.491Z,95520.69
2017-11-04T19:40:47.747Z,95521.06
2017-11-04T19:43:14.979Z,95527.13
2017-11-04T19:45:42.181Z,95530.14
2017-11-04T19:48:09.397Z,95532.41
2017-11-04T19:50:36.568Z,95542.44
2017-11-04T19:53:03.831Z,95539.78
2017-11-04T19:55:31.044Z,95539.02
2017-11-04T19:57:58.222Z,95534.86
2017-11-04T20:00:25.478Z,95535.63
2017-11-04T20:02:52.706Z,95534.50
2017-11-04T20:05:19.888Z,95534.68
2017-11-04T20:07:47.107Z,95539.59
2017-11-04T20:10:14.293Z,95537.88
2017-11-04T20:12:41.628Z,95536.38
2017-11-04T20:15:08.825Z,95535.61
2017-11-04T20:17:35.996Z,95531.84
2017-11-04T20:20:03.194Z,95534.48
2017-11-04T20:22:30.494Z,95529.95
2017-11-04T20:24:57.755Z,95529.19
2017-11-04T20:27:24.941Z,95530.33
2017-11-04T20:29:52.168Z,95528.03
2017-11-04T20:32:20.902Z,95525.20
2017-11-04T20:34:48.069Z,95524.24
2017-11-04T20:37:15.376Z,95525.19
2017-11-04T20:39:42.591Z,95530.69
2017-11-04T20:42:09.863Z,95527.66
2017-11-04T20:44:37.662Z,95526.15
2017-11-04T20:47:04.893Z,95527.27
2017-11-04T20:49:32.066Z,95527.27
2017-11-04T20:51:59.302Z,95532.76
2017-11-04T20:54:26.490Z,95531.98
2017-11-04T20:56:53.743Z,95531.42
2017-11-04T20:59:21.196Z,95537.27
2017-11-04T21:01:48.503Z,95530.86
2017-11-04T21:04:15.707Z,95535.77
2017-11-04T21:06:42.936Z,95535.58
2017-11-04T21:09:10.131Z,95532.00
2017-11-04T21:11:37.366Z,95542.01
2017-11-04T21:14:04.540Z,95540.84
2017-11-04T21:16:31.739Z,95544.05
2017-11-04T21:18:58.942Z,95540.06
2017-11-04T21:21:26.148Z,95539.11
2017-11-04T21:23:53.378Z,95544.78
2017-11-04T21:26:20.588Z,95548.91
2017-11-04T21:33:52.560Z,95540.00
2017-11-04T21:36:19.756Z,95540.36
2017-11-04T21:38:46.927Z,95541.31
2017-11-04T21:41:14.124Z,95543.39
2017-11-04T21:43:41.300Z,95539.02
2017-11-04T21:46:08.507Z,95538.24
2017-11-04T21:48:35.668Z,95541.26
2017-11-04T21:51:02.885Z,95540.13
2017-11-04T21:53:30.124Z,95541.05
2017-11-04T21:55:57.312Z,95534.80
2017-11-04T21:58:24.537Z,95534.05
2017-11-04T22:00:51.698Z,95528.33
2017-11-04T22:03:18.874Z,95529.09
2017-11-04T22:05:46.088Z,95535.68
2017-11-04T22:08:13.295Z,95528.70
2017-11-04T22:10:40.444Z,95534.36
2017-11-04T22:13:07.671Z,95527.53
2017-11-04T22:15:34.884Z,95531.52
2017-11-04T22:18:02.072Z,95529.98
2017-11-04T22:20:35.144Z,95523.38
2017-11-04T22:23:02.294Z,95522.59
2017-11-04T22:25:29.486Z,95520.89
2017-11-04T22:27:56.746Z,95516.73
2017-11-04T22:30:23.928Z,95516.17
2017-11-04T22:32:51.140Z,95516.92
2017-11-04T22:35:18.369Z,95516.16
2017-11-04T22:37:45.609Z,95515.00
2017-11-04T22:40:12.778Z,95510.86
2017-11-04T22:42:39.951Z,95513.31
2017-11-04T22:45:07.168Z,95508.78
2017-11-04T22:47:34.348Z,95509.89
2017-11-04T22:50:01.505Z,95504.24
2017-11-04T22:52:28.783Z,95508.58
2017-11-04T22:54:57.514Z,95510.45
2017-11-04T22:57:24.767Z,95505.53
2017-11-04T22:59:51.994Z,95504.77
2017-11-04T23:02:19.187Z,95514.59
2017-11-04T23:04:46.379Z,95496.47
2017-11-04T23:07:13.588Z,95507.39
2017-11-04T23:09:40.787Z,95512.69
2017-11-04T23:12:08.036Z,95509.84
2017-11-04T23:14:35.316Z,95510.77
2017-11-04T23:17:02.503Z,95516.81
2017-11-04T23:19:29.716Z,95513.59
2017-11-04T23:21:57.548Z,95511.54
2017-11-04T23:24:24.707Z,95506.03
2017-11-04T23:26:51.949Z,95506.41
2017-11-04T23:29:19.168Z,95501.12
2017-11-04T23:31:46.369Z,95504.34
2017-11-04T23:34:13.554Z,95506.20
2017-11-04T23:36:40.839Z,95505.08
2017-11-04T23:39:08.027Z,95503.92
2017-11-04T23:41:35.183Z,95505.06
2017-11-04T23:44:02.381Z,95505.06
2017-11-04T23:46:29.560Z,95500.53
2017-11-04T23:48:56.773Z,95499.76
2017-11-04T23:51:23.970Z,95498.81
2017-11-04T23:53:51.221Z,95493.72
2017-11-04T23:56:18.423Z,95499.94
2017-11-04T23:58:45.631Z,95502.02
